| time (UTC) | temp F | wind direction | speed knots | gust knots | rain 1hr in | rain 24hr in | rain mn in | humidity % | barometer mb |
| 20260906182633 | 99 | 126 | 0.9 | 0.9 | 0.00 | 0.00 | 0.00 | 47 | 1015.3 |
| 20260906182129 | 98 | 142 | 2.6 | 2.6 | 0.00 | 0.00 | 0.00 | 48 | 1015.3 |
| 20260906181624 | 98 | 119 | 0.0 | 0.0 | 0.00 | 0.00 | 0.00 | 49 | 1015.7 |
| 20260906181120 | 98 | 137 | 0.0 | 0.0 | 0.00 | 0.00 | 0.00 | 50 | 1015.7 |
| 20260906180615 | 97 | 100 | 1.7 | 1.7 | 0.00 | 0.00 | 0.00 | 50 | 1015.7 |
| 20260906180109 | 97 | 146 | 1.7 | 2.6 | 0.00 | 0.00 | 0.00 | 49 | 1016.0 |
| 20260906175607 | 100 | 156 | 2.6 | 2.6 | 0.00 | 0.00 | 0.00 | 47 | 1016.0 |
| 20260906175103 | 98 | 143 | 0.0 | 0.0 | 0.00 | 0.00 | 0.00 | 50 | 1016.0 |
| 20260906174601 | 96 | 154 | 0.0 | 0.0 | 0.00 | 0.00 | 0.00 | 51 | 1016.0 |
| 20260906174055 | 96 | 151 | 0.9 | 1.7 | 0.00 | 0.00 | 0.00 | 52 | 1016.3 |
| 20260906173550 | 97 | 134 | 0.0 | 0.0 | 0.00 | 0.00 | 0.00 | 51 | 1016.3 |
| 20260906173046 | 97 | 136 | 0.0 | 0.0 | 0.00 | 0.00 | 0.00 | 51 | 1016.0 |
| 20260906172540 | 96 | 125 | 0.9 | 0.9 | 0.00 | 0.00 | 0.00 | 52 | 1016.0 |
| 20260906172036 | 97 | 121 | 2.6 | 2.6 | 0.00 | 0.00 | 0.00 | 51 | 1016.3 |
| 20260906171531 | 96 | 149 | 1.7 | 1.7 | 0.00 | 0.00 | 0.00 | 50 | 1016.7 |
| 20260906171027 | 97 | 96 | 0.9 | 1.7 | 0.00 | 0.00 | 0.00 | 50 | 1016.7 |
| 20260906170522 | 97 | 121 | 0.0 | 0.0 | 0.00 | 0.00 | 0.00 | 51 | 1016.7 |
| 20260906170021 | 95 | 156 | 2.6 | 2.6 | 0.00 | 0.00 | 0.00 | 53 | 1017.0 |
| 20260906165518 | 95 | 139 | 2.6 | 2.6 | 0.00 | 0.00 | 0.00 | 53 | 1016.7 |
| 20260906165013 | 94 | 122 | 2.6 | 2.6 | 0.00 | 0.00 | 0.00 | 53 | 1016.7 |
| 20260906164512 | 95 | 164 | 0.9 | 1.7 | 0.00 | 0.00 | 0.00 | 54 | 1017.0 |
| 20260906164009 | 95 | 153 | 0.0 | 0.0 | 0.00 | 0.00 | 0.00 | 54 | 1016.7 |
| 20260906163504 | 95 | 109 | 1.7 | 1.7 | 0.00 | 0.00 | 0.00 | 53 | 1016.7 |
| 20260906163004 | 95 | 121 | 3.5 | 5.2 | 0.00 | 0.00 | 0.00 | 53 | 1016.7 |
| 20260906162500 | 94 | 120 | 2.6 | 2.6 | 0.00 | 0.00 | 0.00 | 55 | 1017.0 |
| 20260906161950 | 95 | 130 | 3.5 | 4.3 | 0.00 | 0.00 | 0.00 | 54 | 1017.0 |
| 20260906161450 | 94 | 118 | 0.9 | 1.7 | 0.00 | 0.00 | 0.00 | 55 | 1017.0 |
| 20260906160948 | 95 | 143 | 3.5 | 4.3 | 0.00 | 0.00 | 0.00 | 56 | 1017.0 |
| 20260906160443 | 93 | 136 | 0.0 | 0.9 | 0.00 | 0.00 | 0.00 | 55 | 1016.7 |
| 20260906155941 | 93 | 140 | 0.0 | 0.0 | 0.00 | 0.00 | 0.00 | 56 | 1016.7 |
| 20260906155440 | 92 | 126 | 3.5 | 5.2 | 0.00 | 0.00 | 0.00 | 58 | 1016.7 |
| 20260906154936 | 93 | 121 | 1.7 | 4.3 | 0.00 | 0.00 | 0.00 | 56 | 1016.7 |
| 20260906154431 | 93 | 147 | 0.0 | 0.9 | 0.00 | 0.00 | 0.00 | 57 | 1016.7 |
| 20260906153929 | 93 | 158 | 3.5 | 5.2 | 0.00 | 0.00 | 0.00 | 58 | 1016.7 |
| 20260906153428 | 91 | 160 | 2.6 | 4.3 | 0.00 | 0.00 | 0.00 | 59 | 1016.7 |
| 20260906152923 | 91 | 139 | 3.5 | 4.3 | 0.00 | 0.00 | 0.00 | 60 | 1016.7 |
| 20260906152418 | 90 | 113 | 3.5 | 4.3 | 0.00 | 0.00 | 0.00 | 61 | 1016.7 |
| 20260906151917 | 90 | 145 | 1.7 | 1.7 | 0.00 | 0.00 | 0.00 | 61 | 1016.7 |
| 20260906151413 | 90 | 108 | 4.3 | 6.1 | 0.00 | 0.00 | 0.00 | 61 | 1016.7 |
| 20260906150909 | 89 | 135 | 0.9 | 0.9 | 0.00 | 0.00 | 0.00 | 61 | 1016.3 |
| 20260906150404 | 90 | 90 | 3.5 | 4.3 | 0.00 | 0.00 | 0.00 | 61 | 1016.3 |
| 20260906145903 | 90 | 100 | 1.7 | 1.7 | 0.00 | 0.00 | 0.00 | 62 | 1016.7 |
| 20260906145356 | 89 | 139 | 0.9 | 1.7 | 0.00 | 0.00 | 0.00 | 63 | 1016.7 |
| 20260906144851 | 88 | 107 | 2.6 | 2.6 | 0.00 | 0.00 | 0.00 | 63 | 1016.3 |
| 20260906144346 | 88 | 117 | 3.5 | 4.3 | 0.00 | 0.00 | 0.00 | 64 | 1016.7 |
| 20260906143847 | 88 | 130 | 0.9 | 1.7 | 0.00 | 0.00 | 0.00 | 63 | 1016.7 |
| 20260906143342 | 88 | 126 | 0.9 | 1.7 | 0.00 | 0.00 | 0.00 | 63 | 1016.7 |
| 20260906142838 | 87 | 114 | 0.0 | 0.0 | 0.00 | 0.00 | 0.00 | 65 | 1016.7 |
| 20260906142333 | 86 | 124 | 0.0 | 0.0 | 0.00 | 0.00 | 0.00 | 64 | 1016.7 |
| 20260906141833 | 86 | 122 | 3.5 | 4.3 | 0.00 | 0.00 | 0.00 | 65 | 1016.7 |
| 20260906141322 | 86 | 138 | 0.0 | 0.9 | 0.00 | 0.00 | 0.00 | 65 | 1016.7 |
| 20260906140820 | 86 | 129 | 0.9 | 0.9 | 0.00 | 0.00 | 0.00 | 65 | 1016.7 |
| 20260906140316 | 85 | 118 | 0.9 | 2.6 | 0.00 | 0.00 | 0.00 | 66 | 1016.7 |
| 20260906135813 | 86 | 139 | 0.9 | 0.9 | 0.00 | 0.00 | 0.00 | 66 | 1016.3 |
| 20260906135308 | 86 | 144 | 0.0 | 0.9 | 0.00 | 0.00 | 0.00 | 65 | 1016.7 |
| 20260906134804 | 85 | 144 | 0.0 | 0.0 | 0.00 | 0.00 | 0.00 | 66 | 1016.7 |
| 20260906134258 | 85 | 124 | 0.9 | 0.9 | 0.00 | 0.00 | 0.00 | 68 | 1016.3 |
| 20260906133754 | 85 | 139 | 0.0 | 0.9 | 0.00 | 0.00 | 0.00 | 66 | 1016.3 |
| 20260906133250 | 83 | 135 | 0.9 | 1.7 | 0.00 | 0.00 | 0.00 | 69 | 1016.3 |
| 20260906132745 | 83 | 104 | 2.6 | 2.6 | 0.00 | 0.00 | 0.00 | 68 | 1016.0 |
| 20260906132240 | 83 | 134 | 0.9 | 1.7 | 0.00 | 0.00 | 0.00 | 69 | 1016.0 |
| 20260906131735 | 82 | 111 | 3.5 | 4.3 | 0.00 | 0.00 | 0.00 | 70 | 1016.0 |
| 20260906131224 | 81 | 125 | 3.5 | 5.2 | 0.00 | 0.00 | 0.00 | 71 | 1016.0 |
| 20260906130720 | 81 | 114 | 2.6 | 2.6 | 0.00 | 0.00 | 0.00 | 71 | 1016.0 |
| 20260906130214 | 81 | 113 | 3.5 | 5.2 | 0.00 | 0.00 | 0.00 | 71 | 1016.0 |
| 20260906125713 | 80 | 108 | 1.7 | 4.3 | 0.00 | 0.00 | 0.00 | 72 | 1016.0 |
| 20260906125211 | 80 | 130 | 2.6 | 4.3 | 0.00 | 0.00 | 0.00 | 74 | 1015.7 |
| 20260906124707 | 80 | 136 | 1.7 | 1.7 | 0.00 | 0.00 | 0.00 | 74 | 1016.0 |
| 20260906124202 | 80 | 116 | 2.6 | 2.6 | 0.00 | 0.00 | 0.00 | 73 | 1015.7 |
| 20260906123700 | 80 | 121 | 2.6 | 2.6 | 0.00 | 0.00 | 0.00 | 74 | 1015.7 |
| 20260906123156 | 79 | 113 | 0.9 | 0.9 | 0.00 | 0.00 | 0.00 | 74 | 1015.3 |
| 20260906122655 | 79 | 112 | 2.6 | 2.6 | 0.00 | 0.00 | 0.00 | 74 | 1015.7 |
| 20260906122151 | 79 | 152 | 1.7 | 2.6 | 0.00 | 0.00 | 0.00 | 74 | 1015.7 |
| 20260906121647 | 79 | 136 | 1.7 | 1.7 | 0.00 | 0.00 | 0.00 | 74 | 1015.7 |
| 20260906121143 | 79 | 133 | 0.9 | 1.7 | 0.00 | 0.00 | 0.00 | 74 | 1015.7 |
| 20260906120639 | 79 | 141 | 1.7 | 2.6 | 0.00 | 0.00 | 0.00 | 74 | 1015.3 |
| 20260906120136 | 79 | 146 | 1.7 | 2.6 | 0.00 | 0.00 | 0.00 | 74 | 1015.3 |
| 20260906115631 | 79 | 122 | 2.6 | 2.6 | 0.00 | 0.00 | 0.00 | 74 | 1015.3 |
| 20260906115126 | 79 | 137 | 1.7 | 1.7 | 0.00 | 0.00 | 0.00 | 74 | 1015.3 |
| 20260906114619 | 79 | 144 | 2.6 | 2.6 | 0.00 | 0.00 | 0.00 | 73 | 1015.7 |
| 20260906114115 | 79 | 114 | 1.7 | 1.7 | 0.00 | 0.00 | 0.00 | 73 | 1015.3 |
| 20260906113615 | 79 | 131 | 1.7 | 1.7 | 0.00 | 0.00 | 0.00 | 73 | 1015.3 |
| 20260906113109 | 79 | 126 | 1.7 | 1.7 | 0.00 | 0.00 | 0.00 | 73 | 1015.3 |
| 20260906112604 | 79 | 134 | 0.9 | 0.9 | 0.00 | 0.00 | 0.00 | 74 | 1015.3 |
| 20260906112101 | 79 | 122 | 2.6 | 2.6 | 0.00 | 0.00 | 0.00 | 74 | 1015.0 |
| 20260906111600 | 79 | 103 | 1.7 | 2.6 | 0.00 | 0.00 | 0.00 | 74 | 1015.3 |
| 20260906111055 | 79 | 121 | 1.7 | 1.7 | 0.00 | 0.00 | 0.00 | 74 | 1015.3 |
| 20260906110554 | 79 | 123 | 2.6 | 2.6 | 0.00 | 0.00 | 0.00 | 74 | 1015.3 |
| 20260906110054 | 79 | 126 | 0.9 | 1.7 | 0.00 | 0.00 | 0.00 | 74 | 1015.0 |
| 20260906105548 | 79 | 128 | 1.7 | 1.7 | 0.00 | 0.00 | 0.00 | 73 | 1015.3 |
| 20260906105045 | 79 | 122 | 1.7 | 1.7 | 0.00 | 0.00 | 0.00 | 73 | 1015.3 |
| 20260906104543 | 79 | 116 | 2.6 | 2.6 | 0.00 | 0.00 | 0.00 | 74 | 1015.3 |
| 20260906104038 | 80 | 124 | 0.9 | 0.9 | 0.00 | 0.00 | 0.00 | 73 | 1015.3 |
| 20260906103536 | 80 | 119 | 1.7 | 1.7 | 0.00 | 0.00 | 0.00 | 73 | 1015.0 |
| 20260906103031 | 80 | 124 | 0.9 | 1.7 | 0.00 | 0.00 | 0.00 | 73 | 1015.0 |
| 20260906102526 | 80 | 120 | 1.7 | 1.7 | 0.00 | 0.00 | 0.00 | 73 | 1015.0 |
| 20260906102021 | 80 | 141 | 0.9 | 0.9 | 0.00 | 0.00 | 0.00 | 72 | 1015.0 |
| 20260906101516 | 80 | 126 | 1.7 | 1.7 | 0.00 | 0.00 | 0.00 | 72 | 1015.0 |
| 20260906101010 | 80 | 111 | 1.7 | 1.7 | 0.00 | 0.00 | 0.00 | 71 | 1015.3 |
| 20260906100506 | 80 | 111 | 2.6 | 2.6 | 0.00 | 0.00 | 0.00 | 71 | 1015.0 |
| 20260906100006 | 81 | 107 | 2.6 | 4.3 | 0.00 | 0.00 | 0.00 | 71 | 1015.0 |
| 20260906095500 | 81 | 121 | 0.9 | 1.7 | 0.00 | 0.00 | 0.00 | 71 | 1015.0 |
| 20260906094956 | 81 | 137 | 1.7 | 2.6 | 0.00 | 0.00 | 0.00 | 70 | 1015.0 |
| 20260906094455 | 81 | 123 | 1.7 | 1.7 | 0.00 | 0.00 | 0.00 | 70 | 1015.0 |
| 20260906093951 | 81 | 125 | 0.9 | 0.9 | 0.00 | 0.00 | 0.00 | 70 | 1014.5 |
| 20260906093447 | 81 | 120 | 2.6 | 2.6 | 0.00 | 0.00 | 0.00 | 70 | 1015.0 |
| 20260906092942 | 80 | 116 | 3.5 | 4.3 | 0.00 | 0.00 | 0.00 | 71 | 1015.0 |
| 20260906092441 | 80 | 123 | 0.9 | 1.7 | 0.00 | 0.00 | 0.00 | 72 | 1015.0 |
| 20260906091936 | 80 | 123 | 0.9 | 1.7 | 0.00 | 0.00 | 0.00 | 73 | 1015.0 |
| 20260906091432 | 80 | 120 | 2.6 | 2.6 | 0.00 | 0.00 | 0.00 | 75 | 1015.0 |
| 20260906090929 | 80 | 125 | 0.0 | 0.0 | 0.00 | 0.00 | 0.00 | 73 | 1015.0 |
| 20260906090424 | 80 | 126 | 0.9 | 0.9 | 0.00 | 0.00 | 0.00 | 73 | 1015.0 |
| 20260906085919 | 80 | 125 | 1.7 | 1.7 | 0.00 | 0.00 | 0.00 | 73 | 1014.5 |
| 20260906085417 | 80 | 131 | 0.9 | 0.9 | 0.00 | 0.00 | 0.00 | 73 | 1015.0 |
| 20260906084917 | 81 | 129 | 1.7 | 1.7 | 0.00 | 0.00 | 0.00 | 72 | 1014.5 |
| 20260906084412 | 81 | 131 | 0.9 | 0.9 | 0.00 | 0.00 | 0.00 | 72 | 1014.5 |
| 20260906083911 | 81 | 131 | 0.9 | 0.9 | 0.00 | 0.00 | 0.00 | 72 | 1014.5 |
| 20260906083407 | 81 | 127 | 0.9 | 0.9 | 0.00 | 0.00 | 0.00 | 72 | 1014.2 |
| 20260906082906 | 81 | 134 | 0.9 | 0.9 | 0.00 | 0.00 | 0.00 | 72 | 1014.5 |
| 20260906082401 | 81 | 124 | 0.9 | 1.7 | 0.00 | 0.00 | 0.00 | 72 | 1014.5 |
| 20260906081858 | 81 | 125 | 0.9 | 0.9 | 0.00 | 0.00 | 0.00 | 72 | 1014.5 |
| 20260906081353 | 81 | 131 | 0.9 | 0.9 | 0.00 | 0.00 | 0.00 | 71 | 1014.5 |
| 20260906080849 | 82 | 130 | 0.9 | 0.9 | 0.00 | 0.00 | 0.00 | 71 | 1014.5 |
| 20260906080345 | 82 | 120 | 1.7 | 1.7 | 0.00 | 0.00 | 0.00 | 70 | 1014.5 |
| 20260906075844 | 82 | 121 | 1.7 | 1.7 | 0.00 | 0.00 | 0.00 | 70 | 1014.2 |
| 20260906075339 | 82 | 131 | 0.9 | 0.9 | 0.00 | 0.00 | 0.00 | 70 | 1014.2 |
| 20260906074835 | 82 | 130 | 1.7 | 1.7 | 0.00 | 0.00 | 0.00 | 70 | 1014.2 |
| 20260906074334 | 82 | 125 | 0.9 | 0.9 | 0.00 | 0.00 | 0.00 | 69 | 1014.5 |
| 20260906073833 | 82 | 124 | 1.7 | 1.7 | 0.00 | 0.00 | 0.00 | 69 | 1014.5 |
| 20260906073328 | 82 | 127 | 1.7 | 1.7 | 0.00 | 0.00 | 0.00 | 69 | 1014.5 |
| 20260906072825 | 82 | 124 | 1.7 | 1.7 | 0.00 | 0.00 | 0.00 | 69 | 1014.5 |
| 20260906072320 | 83 | 127 | 0.9 | 0.9 | 0.00 | 0.00 | 0.00 | 68 | 1014.5 |
| 20260906071816 | 83 | 130 | 1.7 | 1.7 | 0.00 | 0.00 | 0.00 | 68 | 1014.5 |
| 20260906071316 | 83 | 126 | 0.9 | 1.7 | 0.00 | 0.00 | 0.00 | 68 | 1014.5 |
| 20260906070812 | 83 | 128 | 1.7 | 1.7 | 0.00 | 0.00 | 0.00 | 68 | 1015.0 |
| 20260906070308 | 83 | 130 | 0.9 | 0.9 | 0.00 | 0.00 | 0.00 | 68 | 1014.5 |
| 20260906065802 | 83 | 124 | 0.9 | 0.9 | 0.00 | 0.00 | 0.00 | 68 | 1014.5 |
| 20260906065257 | 83 | 129 | 0.9 | 0.9 | 0.00 | 0.00 | 0.00 | 68 | 1015.0 |
| 20260906064753 | 83 | 130 | 0.9 | 1.7 | 0.00 | 0.00 | 0.00 | 68 | 1014.5 |
| 20260906064249 | 83 | 129 | 0.9 | 1.7 | 0.00 | 0.00 | 0.00 | 68 | 1015.0 |
| 20260906063744 | 83 | 129 | 0.0 | 0.0 | 0.00 | 0.00 | 0.00 | 69 | 1015.0 |
| 20260906063239 | 83 | 125 | 1.7 | 1.7 | 0.00 | 0.00 | 0.00 | 68 | 1015.0 |
| 20260906062734 | 83 | 130 | 1.7 | 1.7 | 0.00 | 0.00 | 0.00 | 68 | 1015.0 |
| 20260906062233 | 83 | 127 | 1.7 | 1.7 | 0.00 | 0.00 | 0.00 | 68 | 1014.5 |
| 20260906061729 | 83 | 125 | 0.9 | 1.7 | 0.00 | 0.00 | 0.00 | 68 | 1014.5 |
| 20260906061226 | 83 | 131 | 0.9 | 1.7 | 0.00 | 0.00 | 0.00 | 68 | 1015.0 |
| 20260906060721 | 84 | 123 | 1.7 | 1.7 | 0.00 | 0.00 | 0.00 | 68 | 1015.0 |
| 20260906060218 | 84 | 126 | 0.9 | 1.7 | 0.00 | 0.00 | 0.00 | 68 | 1015.0 |
| 20260906055714 | 84 | 116 | 2.6 | 2.6 | 0.00 | 0.00 | 0.00 | 68 | 1015.0 |
| 20260906055208 | 84 | 115 | 1.7 | 2.6 | 0.00 | 0.00 | 0.00 | 67 | 1015.0 |
| 20260906054703 | 84 | 124 | 1.7 | 1.7 | 0.00 | 0.00 | 0.00 | 67 | 1015.0 |
| 20260906054159 | 84 | 118 | 0.0 | 0.0 | 0.00 | 0.00 | 0.00 | 67 | 1015.0 |
| 20260906053655 | 84 | 121 | 0.0 | 0.0 | 0.00 | 0.00 | 0.00 | 67 | 1015.0 |
| 20260906053150 | 84 | 128 | 0.0 | 0.0 | 0.00 | 0.00 | 0.00 | 67 | 1015.0 |
| 20260906052645 | 84 | 115 | 1.7 | 1.7 | 0.00 | 0.00 | 0.00 | 67 | 1015.0 |
| 20260906052142 | 84 | 126 | 2.6 | 4.3 | 0.00 | 0.00 | 0.00 | 67 | 1015.0 |
| 20260906051638 | 84 | 119 | 1.7 | 1.7 | 0.00 | 0.00 | 0.00 | 67 | 1015.0 |
| 20260906051137 | 84 | 109 | 2.6 | 2.6 | 0.00 | 0.00 | 0.00 | 67 | 1015.0 |
| 20260906050633 | 85 | 123 | 2.6 | 2.6 | 0.00 | 0.00 | 0.00 | 67 | 1015.0 |
| 20260906050128 | 85 | 119 | 2.6 | 4.3 | 0.00 | 0.00 | 0.00 | 66 | 1015.0 |
| 20260906045627 | 85 | 119 | 1.7 | 1.7 | 0.00 | 0.00 | 0.00 | 66 | 1015.3 |
| 20260906045122 | 85 | 121 | 0.0 | 0.9 | 0.00 | 0.00 | 0.00 | 66 | 1015.0 |
| 20260906044618 | 85 | 118 | 3.5 | 4.3 | 0.00 | 0.00 | 0.00 | 66 | 1015.0 |
| 20260906044113 | 85 | 98 | 3.5 | 4.3 | 0.00 | 0.00 | 0.00 | 65 | 1015.0 |
| 20260906043609 | 85 | 110 | 2.6 | 2.6 | 0.00 | 0.00 | 0.00 | 66 | 1015.0 |
| 20260906043104 | 86 | 127 | 2.6 | 2.6 | 0.00 | 0.00 | 0.00 | 66 | 1015.0 |
| 20260906042604 | 86 | 118 | 0.9 | 1.7 | 0.00 | 0.00 | 0.00 | 66 | 1015.3 |
| 20260906042058 | 86 | 118 | 2.6 | 2.6 | 0.00 | 0.00 | 0.00 | 66 | 1015.0 |
| 20260906041554 | 86 | 124 | 1.7 | 2.6 | 0.00 | 0.00 | 0.00 | 66 | 1014.5 |
| 20260906041049 | 86 | 123 | 2.6 | 2.6 | 0.00 | 0.00 | 0.00 | 66 | 1015.0 |
| 20260906040544 | 86 | 117 | 2.6 | 2.6 | 0.00 | 0.00 | 0.00 | 65 | 1015.0 |
| 20260906040040 | 86 | 97 | 2.6 | 2.6 | 0.00 | 0.00 | 0.00 | 65 | 1014.5 |
| 20260906035535 | 86 | 110 | 2.6 | 2.6 | 0.00 | 0.00 | 0.00 | 65 | 1014.5 |
| 20260906035031 | 86 | 110 | 2.6 | 2.6 | 0.00 | 0.00 | 0.00 | 65 | 1015.0 |
| 20260906034530 | 86 | 133 | 1.7 | 2.6 | 0.00 | 0.00 | 0.00 | 65 | 1014.5 |
| 20260906034025 | 86 | 114 | 2.6 | 4.3 | 0.00 | 0.00 | 0.00 | 65 | 1014.5 |
| 20260906033520 | 87 | 121 | 2.6 | 2.6 | 0.00 | 0.00 | 0.00 | 65 | 1014.5 |
| 20260906033016 | 87 | 124 | 0.9 | 2.6 | 0.00 | 0.00 | 0.00 | 65 | 1014.5 |
| 20260906032513 | 87 | 129 | 1.7 | 1.7 | 0.00 | 0.00 | 0.00 | 65 | 1014.5 |
| 20260906032013 | 87 | 106 | 0.0 | 0.0 | 0.00 | 0.00 | 0.00 | 65 | 1014.5 |
| 20260906031509 | 87 | 130 | 1.7 | 2.6 | 0.00 | 0.00 | 0.00 | 65 | 1015.0 |
| 20260906031004 | 87 | 136 | 0.9 | 1.7 | 0.00 | 0.00 | 0.00 | 65 | 1014.2 |
| 20260906030457 | 87 | 121 | 0.0 | 0.0 | 0.00 | 0.00 | 0.00 | 64 | 1014.2 |
| 20260906025952 | 88 | 119 | 0.0 | 0.0 | 0.00 | 0.00 | 0.00 | 64 | 1014.2 |
| 20260906025446 | 88 | 129 | 0.9 | 1.7 | 0.00 | 0.00 | 0.00 | 63 | 1014.2 |
| 20260906024945 | 88 | 103 | 2.6 | 2.6 | 0.00 | 0.00 | 0.00 | 63 | 1013.9 |
| 20260906024444 | 88 | 122 | 2.6 | 4.3 | 0.00 | 0.00 | 0.00 | 63 | 1014.2 |
| 20260906023939 | 88 | 119 | 0.0 | 0.9 | 0.00 | 0.00 | 0.00 | 63 | 1014.2 |
| 20260906023435 | 88 | 127 | 1.7 | 1.7 | 0.00 | 0.00 | 0.00 | 62 | 1013.9 |
| 20260906022930 | 88 | 126 | 1.7 | 1.7 | 0.00 | 0.00 | 0.00 | 62 | 1013.9 |
| 20260906022426 | 89 | 123 | 0.0 | 0.0 | 0.00 | 0.00 | 0.00 | 62 | 1013.9 |
| 20260906021921 | 89 | 131 | 0.9 | 1.7 | 0.00 | 0.00 | 0.00 | 61 | 1013.9 |
| 20260906021421 | 89 | 117 | 0.0 | 0.0 | 0.00 | 0.00 | 0.00 | 61 | 1013.5 |
| 20260906020914 | 89 | 118 | 0.0 | 0.0 | 0.00 | 0.00 | 0.00 | 60 | 1013.5 |
| 20260906020409 | 89 | 129 | 0.0 | 0.0 | 0.00 | 0.00 | 0.00 | 60 | 1013.5 |
| 20260906015903 | 89 | 131 | 0.0 | 0.0 | 0.00 | 0.00 | 0.00 | 59 | 1013.5 |
| 20260906015402 | 89 | 132 | 0.0 | 0.0 | 0.00 | 0.00 | 0.00 | 58 | 1013.5 |
| 20260906014856 | 90 | 120 | 0.9 | 0.9 | 0.00 | 0.00 | 0.00 | 57 | 1013.5 |
| 20260906014351 | 89 | 134 | 0.0 | 0.0 | 0.00 | 0.00 | 0.00 | 57 | 1013.5 |
| 20260906013847 | 90 | 131 | 0.0 | 0.0 | 0.00 | 0.00 | 0.00 | 56 | 1013.2 |
| 20260906013343 | 90 | 131 | 0.0 | 0.0 | 0.00 | 0.00 | 0.00 | 55 | 1013.2 |
| 20260906012838 | 91 | 134 | 0.0 | 0.0 | 0.00 | 0.00 | 0.00 | 53 | 1013.2 |
| 20260906012333 | 91 | 139 | 0.0 | 0.0 | 0.00 | 0.00 | 0.00 | 53 | 1013.2 |
| 20260906011833 | 91 | 136 | 0.0 | 0.0 | 0.00 | 0.00 | 0.00 | 52 | 1012.8 |
| 20260906011328 | 91 | 134 | 0.0 | 0.0 | 0.00 | 0.00 | 0.00 | 52 | 1012.8 |
| 20260906010824 | 92 | 138 | 0.0 | 0.0 | 0.00 | 0.00 | 0.00 | 52 | 1013.2 |
| 20260906010319 | 92 | 137 | 0.0 | 0.0 | 0.00 | 0.00 | 0.00 | 52 | 1013.2 |
| 20260906005815 | 92 | 137 | 0.0 | 0.0 | 0.00 | 0.00 | 0.00 | 51 | 1012.8 |
| 20260906005314 | 93 | 137 | 0.0 | 0.0 | 0.00 | 0.00 | 0.00 | 51 | 1013.2 |
| 20260906004813 | 93 | 138 | 0.0 | 0.0 | 0.00 | 0.00 | 0.00 | 50 | 1013.2 |
| 20260906004313 | 93 | 137 | 0.0 | 0.0 | 0.00 | 0.00 | 0.00 | 49 | 1012.8 |
| 20260906003808 | 94 | 134 | 0.0 | 0.0 | 0.00 | 0.00 | 0.00 | 49 | 1012.8 |
| 20260906003303 | 94 | 133 | 0.0 | 0.0 | 0.00 | 0.00 | 0.00 | 48 | 1013.2 |
| 20260906002759 | 94 | 136 | 0.0 | 0.9 | 0.00 | 0.00 | 0.00 | 48 | 1012.8 |
| 20260906002258 | 95 | 134 | 0.0 | 0.0 | 0.00 | 0.00 | 0.00 | 47 | 1012.8 |
| 20260906001754 | 95 | 129 | 0.0 | 0.0 | 0.00 | 0.00 | 0.00 | 46 | 1012.8 |
| 20260906001248 | 96 | 134 | 0.9 | 0.9 | 0.00 | 0.00 | 0.00 | 46 | 1012.8 |
| 20260906000744 | 96 | 137 | 0.9 | 1.7 | 0.00 | 0.00 | 0.00 | 45 | 1012.8 |
| 20260906000238 | 96 | 123 | 0.0 | 0.0 | 0.00 | 0.00 | 0.00 | 45 | 1012.8 |
| 20260905235733 | 97 | 140 | 0.0 | 0.0 | 0.00 | 0.00 | 0.00 | 44 | 1012.8 |
| 20260905235233 | 98 | 119 | 0.0 | 0.0 | 0.00 | 0.00 | 0.00 | 42 | 1013.2 |
| 20260905234729 | 98 | 160 | 0.0 | 0.0 | 0.00 | 0.00 | 0.00 | 42 | 1012.8 |
| 20260905234224 | 98 | 135 | 3.5 | 4.3 | 0.00 | 0.00 | 0.00 | 42 | 1013.2 |
| 20260905233719 | 98 | 132 | 0.0 | 0.9 | 0.00 | 0.00 | 0.00 | 41 | 1012.8 |
| 20260905233218 | 98 | 127 | 0.0 | 0.0 | 0.00 | 0.00 | 0.00 | 42 | 1013.2 |
| 20260905232713 | 98 | 151 | 1.7 | 2.6 | 0.00 | 0.00 | 0.00 | 42 | 1012.8 |
| 20260905232209 | 99 | 147 | 0.0 | 0.9 | 0.00 | 0.00 | 0.00 | 41 | 1012.8 |
| 20260905231705 | 99 | 151 | 0.9 | 0.9 | 0.00 | 0.00 | 0.00 | 41 | 1012.8 |
| 20260905231200 | 100 | 154 | 3.5 | 4.3 | 0.00 | 0.00 | 0.00 | 40 | 1012.8 |
| 20260905230656 | 100 | 167 | 1.7 | 2.6 | 0.00 | 0.00 | 0.00 | 40 | 1012.8 |
| 20260905230154 | 100 | 163 | 0.9 | 0.9 | 0.00 | 0.00 | 0.00 | 40 | 1012.8 |
| 20260905225653 | 100 | 143 | 0.0 | 0.0 | 0.00 | 0.00 | 0.00 | 41 | 1012.8 |
| 20260905225148 | 100 | 144 | 0.9 | 0.9 | 0.00 | 0.00 | 0.00 | 41 | 1012.5 |
| 20260905224648 | 98 | 143 | 0.0 | 0.0 | 0.00 | 0.00 | 0.00 | 41 | 1012.8 |
| 20260905224142 | 99 | 174 | 1.7 | 1.7 | 0.00 | 0.00 | 0.00 | 42 | 1012.5 |
| 20260905223639 | 99 | 137 | 0.0 | 0.0 | 0.00 | 0.00 | 0.00 | 41 | 1012.8 |
| 20260905223136 | 99 | 120 | 0.0 | 0.9 | 0.00 | 0.00 | 0.00 | 41 | 1013.2 |
| 20260905222631 | 98 | 135 | 0.0 | 0.0 | 0.00 | 0.00 | 0.00 | 42 | 1012.8 |
| 20260905222126 | 99 | 131 | 0.9 | 0.9 | 0.00 | 0.00 | 0.00 | 42 | 1012.8 |
| 20260905221621 | 101 | 143 | 0.0 | 0.0 | 0.00 | 0.00 | 0.00 | 40 | 1013.2 |
| 20260905221118 | 100 | 139 | 0.0 | 0.0 | 0.00 | 0.00 | 0.00 | 40 | 1013.2 |
| 20260905220613 | 99 | 125 | 0.0 | 0.0 | 0.00 | 0.00 | 0.00 | 42 | 1013.2 |
| 20260905220109 | 99 | 133 | 0.0 | 0.0 | 0.00 | 0.00 | 0.00 | 43 | 1013.2 |
| 20260905215609 | 100 | 122 | 0.9 | 0.9 | 0.00 | 0.00 | 0.00 | 41 | 1013.2 |
| 20260905215104 | 100 | 137 | 0.0 | 0.0 | 0.00 | 0.00 | 0.00 | 41 | 1012.8 |
| 20260905214601 | 100 | 139 | 0.0 | 0.0 | 0.00 | 0.00 | 0.00 | 40 | 1013.2 |
| 20260905214100 | 100 | 163 | 0.9 | 0.9 | 0.00 | 0.00 | 0.00 | 40 | 1013.2 |
| 20260905213556 | 99 | 153 | 0.0 | 0.0 | 0.00 | 0.00 | 0.00 | 40 | 1013.2 |
| 20260905213051 | 98 | 186 | 2.6 | 2.6 | 0.00 | 0.00 | 0.00 | 42 | 1013.2 |
| 20260905212551 | 98 | 266 | 0.0 | 0.0 | 0.00 | 0.00 | 0.00 | 42 | 1013.2 |
| 20260905212050 | 98 | 152 | 0.0 | 0.0 | 0.00 | 0.00 | 0.00 | 42 | 1013.5 |
| 20260905211546 | 97 | 144 | 0.0 | 0.0 | 0.00 | 0.00 | 0.00 | 42 | 1013.5 |
| 20260905211041 | 98 | 171 | 2.6 | 2.6 | 0.00 | 0.00 | 0.00 | 42 | 1013.5 |
| 20260905210537 | 101 | 146 | 0.9 | 1.7 | 0.00 | 0.00 | 0.00 | 40 | 1013.5 |
| 20260905210032 | 100 | 144 | 0.0 | 0.9 | 0.00 | 0.00 | 0.00 | 39 | 1013.5 |
| 20260905205532 | 101 | 45 | 2.6 | 2.6 | 0.00 | 0.00 | 0.00 | 40 | 1013.5 |
| 20260905205031 | 100 | 107 | 0.0 | 0.0 | 0.00 | 0.00 | 0.00 | 40 | 1013.9 |
| 20260905204526 | 99 | 139 | 0.0 | 0.0 | 0.00 | 0.00 | 0.00 | 42 | 1013.9 |
| 20260905204021 | 101 | 158 | 0.9 | 1.7 | 0.00 | 0.00 | 0.00 | 40 | 1013.9 |
| 20260905203520 | 98 | 159 | 0.0 | 0.0 | 0.00 | 0.00 | 0.00 | 41 | 1013.9 |
| 20260905203016 | 99 | 109 | 0.9 | 1.7 | 0.00 | 0.00 | 0.00 | 42 | 1014.5 |
| 20260905202511 | 99 | 172 | 2.6 | 2.6 | 0.00 | 0.00 | 0.00 | 41 | 1013.9 |
| 20260905202007 | 98 | 154 | 1.7 | 2.6 | 0.00 | 0.00 | 0.00 | 41 | 1014.2 |
| 20260905201503 | 99 | 141 | 0.0 | 0.9 | 0.00 | 0.00 | 0.00 | 40 | 1014.2 |
| 20260905201002 | 101 | 158 | 0.0 | 1.7 | 0.00 | 0.00 | 0.00 | 38 | 1014.2 |
| 20260905200458 | 100 | 126 | 0.9 | 1.7 | 0.00 | 0.00 | 0.00 | 40 | 1014.2 |
| 20260905195956 | 99 | 187 | 0.0 | 0.0 | 0.00 | 0.00 | 0.00 | 41 | 1014.2 |
| 20260905195451 | 98 | 166 | 0.0 | 0.0 | 0.00 | 0.00 | 0.00 | 43 | 1014.2 |
| 20260905194947 | 99 | 151 | 1.7 | 1.7 | 0.00 | 0.00 | 0.00 | 43 | 1014.5 |
| 20260905194446 | 98 | 166 | 0.0 | 0.0 | 0.00 | 0.00 | 0.00 | 42 | 1015.0 |
| 20260905193941 | 98 | 154 | 0.0 | 0.0 | 0.00 | 0.00 | 0.00 | 44 | 1014.5 |
| 20260905193441 | 99 | 154 | 0.9 | 2.6 | 0.00 | 0.00 | 0.00 | 42 | 1014.5 |
| 20260905192936 | 101 | 192 | 2.6 | 4.3 | 0.00 | 0.00 | 0.00 | 40 | 1014.5 |
| 20260905192431 | 100 | 158 | 1.7 | 1.7 | 0.00 | 0.00 | 0.00 | 41 | 1015.0 |
| 20260905191926 | 99 | 147 | 0.0 | 0.0 | 0.00 | 0.00 | 0.00 | 41 | 1015.0 |
| 20260905191425 | 98 | 182 | 0.9 | 2.6 | 0.00 | 0.00 | 0.00 | 43 | 1015.0 |
| 20260905190920 | 99 | 171 | 0.9 | 0.9 | 0.00 | 0.00 | 0.00 | 43 | 1015.0 |
| 20260905190418 | 99 | 165 | 0.0 | 0.0 | 0.00 | 0.00 | 0.00 | 42 | 1015.0 |
| 20260905185917 | 98 | 176 | 1.7 | 1.7 | 0.00 | 0.00 | 0.00 | 43 | 1015.0 |
| 20260905185412 | 99 | 158 | 0.9 | 1.7 | 0.00 | 0.00 | 0.00 | 43 | 1015.0 |
| 20260905184910 | 100 | 63 | 0.0 | 0.0 | 0.00 | 0.00 | 0.00 | 43 | 1015.0 |
| 20260905184405 | 98 | 148 | 0.0 | 0.0 | 0.00 | 0.00 | 0.00 | 42 | 1015.3 |
| 20260905183903 | 98 | 256 | 1.7 | 4.3 | 0.00 | 0.00 | 0.00 | 44 | 1015.3 |
| 20260905183358 | 97 | 166 | 0.0 | 0.0 | 0.00 | 0.00 | 0.00 | 45 | 1015.7 |
| 20260905182853 | 98 | 152 | 0.0 | 0.0 | 0.00 | 0.00 | 0.00 | 43 | 1015.7 |